sensor_id;sensor_type;location;lat;lon;timestamp;temperature;humidity
13328;DHT22;6733;51.044;3.746;2022-10-16T00:01:36;14.50;99.90
13328;DHT22;6733;51.044;3.746;2022-10-16T00:04:03;14.50;99.90
13328;DHT22;6733;51.044;3.746;2022-10-16T00:06:30;14.40;99.90
13328;DHT22;6733;51.044;3.746;2022-10-16T00:08:57;14.40;99.90
13328;DHT22;6733;51.044;3.746;2022-10-16T00:11:29;14.40;99.90
13328;DHT22;6733;51.044;3.746;2022-10-16T00:16:27;14.30;99.90
13328;DHT22;6733;51.044;3.746;2022-10-16T00:18:53;14.30;99.90
13328;DHT22;6733;51.044;3.746;2022-10-16T00:21:26;14.30;99.90
13328;DHT22;6733;51.044;3.746;2022-10-16T00:23:53;14.30;99.90
13328;DHT22;6733;51.044;3.746;2022-10-16T00:26:21;14.20;99.90
13328;DHT22;6733;51.044;3.746;2022-10-16T00:28:51;14.20;99.90
13328;DHT22;6733;51.044;3.746;2022-10-16T00:31:20;14.20;99.90
13328;DHT22;6733;51.044;3.746;2022-10-16T00:33:46;14.10;99.90
13328;DHT22;6733;51.044;3.746;2022-10-16T00:36:15;14.10;99.90
13328;DHT22;6733;51.044;3.746;2022-10-16T00:38:42;14.10;99.90
13328;DHT22;6733;51.044;3.746;2022-10-16T00:41:12;14.10;99.90
13328;DHT22;6733;51.044;3.746;2022-10-16T00:43:55;14.10;99.90
13328;DHT22;6733;51.044;3.746;2022-10-16T00:49:03;14.10;99.90
13328;DHT22;6733;51.044;3.746;2022-10-16T00:54:00;14.00;99.90
13328;DHT22;6733;51.044;3.746;2022-10-16T00:56:27;14.00;99.90
13328;DHT22;6733;51.044;3.746;2022-10-16T00:58:53;14.00;99.90
13328;DHT22;6733;51.044;3.746;2022-10-16T01:01:20;14.00;99.90
13328;DHT22;6733;51.044;3.746;2022-10-16T01:03:46;14.00;99.90
13328;DHT22;6733;51.044;3.746;2022-10-16T01:09:20;14.10;99.90
13328;DHT22;6733;51.044;3.746;2022-10-16T01:12:10;14.10;99.90
13328;DHT22;6733;51.044;3.746;2022-10-16T01:17:28;14.00;99.90
13328;DHT22;6733;51.044;3.746;2022-10-16T01:20:14;14.00;99.90
13328;DHT22;6733;51.044;3.746;2022-10-16T01:23:03;14.00;99.90
13328;DHT22;6733;51.044;3.746;2022-10-16T01:25:53;14.00;99.90
13328;DHT22;6733;51.044;3.746;2022-10-16T01:28:28;14.00;99.90
13328;DHT22;6733;51.044;3.746;2022-10-16T01:30:58;14.00;99.90
13328;DHT22;6733;51.044;3.746;2022-10-16T01:33:30;14.00;99.90
13328;DHT22;6733;51.044;3.746;2022-10-16T01:36:09;14.00;99.90
13328;DHT22;6733;51.044;3.746;2022-10-16T01:38:39;14.00;99.90
13328;DHT22;6733;51.044;3.746;2022-10-16T01:41:11;14.10;99.90
13328;DHT22;6733;51.044;3.746;2022-10-16T01:43:50;14.00;99.90
13328;DHT22;6733;51.044;3.746;2022-10-16T01:46:20;14.00;99.90
13328;DHT22;6733;51.044;3.746;2022-10-16T01:48:48;14.00;99.90
13328;DHT22;6733;51.044;3.746;2022-10-16T01:51:17;14.00;99.90
13328;DHT22;6733;51.044;3.746;2022-10-16T01:53:48;14.00;99.90
13328;DHT22;6733;51.044;3.746;2022-10-16T01:56:16;14.00;99.90
13328;DHT22;6733;51.044;3.746;2022-10-16T01:58:51;13.90;99.90
13328;DHT22;6733;51.044;3.746;2022-10-16T02:01:21;14.00;99.90
13328;DHT22;6733;51.044;3.746;2022-10-16T02:03:52;14.00;99.90
13328;DHT22;6733;51.044;3.746;2022-10-16T02:06:20;13.90;99.90
13328;DHT22;6733;51.044;3.746;2022-10-16T02:08:46;13.90;99.90
13328;DHT22;6733;51.044;3.746;2022-10-16T02:11:12;13.90;99.90
13328;DHT22;6733;51.044;3.746;2022-10-16T02:13:43;13.90;99.90
13328;DHT22;6733;51.044;3.746;2022-10-16T02:16:12;14.00;99.90
13328;DHT22;6733;51.044;3.746;2022-10-16T02:18:41;13.90;99.90
13328;DHT22;6733;51.044;3.746;2022-10-16T02:24:59;13.90;99.90
13328;DHT22;6733;51.044;3.746;2022-10-16T02:27:24;14.00;99.90
13328;DHT22;6733;51.044;3.746;2022-10-16T02:29:58;13.90;99.90
13328;DHT22;6733;51.044;3.746;2022-10-16T02:32:29;14.00;99.90
13328;DHT22;6733;51.044;3.746;2022-10-16T02:34:57;13.90;99.90
13328;DHT22;6733;51.044;3.746;2022-10-16T02:37:25;13.90;99.90
13328;DHT22;6733;51.044;3.746;2022-10-16T02:39:52;13.90;99.90
13328;DHT22;6733;51.044;3.746;2022-10-16T02:42:18;14.00;99.90
13328;DHT22;6733;51.044;3.746;2022-10-16T02:44:44;13.90;99.90
13328;DHT22;6733;51.044;3.746;2022-10-16T02:47:11;14.00;99.90
13328;DHT22;6733;51.044;3.746;2022-10-16T02:49:37;14.00;99.90
13328;DHT22;6733;51.044;3.746;2022-10-16T02:52:04;13.90;99.90
13328;DHT22;6733;51.044;3.746;2022-10-16T02:54:30;13.90;99.90
13328;DHT22;6733;51.044;3.746;2022-10-16T02:56:56;13.90;99.90
13328;DHT22;6733;51.044;3.746;2022-10-16T02:59:22;13.90;99.90
13328;DHT22;6733;51.044;3.746;2022-10-16T03:01:48;13.90;99.90
13328;DHT22;6733;51.044;3.746;2022-10-16T03:04:17;13.80;99.90
13328;DHT22;6733;51.044;3.746;2022-10-16T03:06:43;13.80;99.90
13328;DHT22;6733;51.044;3.746;2022-10-16T03:09:10;13.80;99.90
13328;DHT22;6733;51.044;3.746;2022-10-16T03:11:36;13.80;99.90
13328;DHT22;6733;51.044;3.746;2022-10-16T03:14:02;13.80;99.90
13328;DHT22;6733;51.044;3.746;2022-10-16T03:16:28;13.80;99.90
13328;DHT22;6733;51.044;3.746;2022-10-16T03:18:54;13.80;99.90
13328;DHT22;6733;51.044;3.746;2022-10-16T03:21:20;13.90;99.90
13328;DHT22;6733;51.044;3.746;2022-10-16T03:23:46;13.80;99.90
13328;DHT22;6733;51.044;3.746;2022-10-16T03:26:13;13.80;99.90
13328;DHT22;6733;51.044;3.746;2022-10-16T03:28:39;13.80;99.90
13328;DHT22;6733;51.044;3.746;2022-10-16T03:31:05;13.80;99.90
13328;DHT22;6733;51.044;3.746;2022-10-16T03:33:31;13.80;99.90
13328;DHT22;6733;51.044;3.746;2022-10-16T03:35:57;13.80;99.90
13328;DHT22;6733;51.044;3.746;2022-10-16T03:38:23;13.80;99.90
13328;DHT22;6733;51.044;3.746;2022-10-16T03:40:49;13.80;99.90
13328;DHT22;6733;51.044;3.746;2022-10-16T03:43:15;13.80;99.90
13328;DHT22;6733;51.044;3.746;2022-10-16T03:45:42;13.80;99.90
13328;DHT22;6733;51.044;3.746;2022-10-16T03:48:10;13.70;99.90
13328;DHT22;6733;51.044;3.746;2022-10-16T03:50:36;13.70;99.90
13328;DHT22;6733;51.044;3.746;2022-10-16T03:53:03;13.70;99.90
13328;DHT22;6733;51.044;3.746;2022-10-16T03:55:29;13.70;99.90
13328;DHT22;6733;51.044;3.746;2022-10-16T03:57:55;13.70;99.90
13328;DHT22;6733;51.044;3.746;2022-10-16T04:00:21;13.70;99.90
13328;DHT22;6733;51.044;3.746;2022-10-16T04:02:47;13.70;99.90
13328;DHT22;6733;51.044;3.746;2022-10-16T04:05:13;13.70;99.90
13328;DHT22;6733;51.044;3.746;2022-10-16T04:07:39;13.70;99.90
13328;DHT22;6733;51.044;3.746;2022-10-16T04:10:06;13.60;99.90
13328;DHT22;6733;51.044;3.746;2022-10-16T04:12:32;13.60;99.90
13328;DHT22;6733;51.044;3.746;2022-10-16T04:14:58;13.70;99.90
13328;DHT22;6733;51.044;3.746;2022-10-16T04:17:24;13.60;99.90
13328;DHT22;6733;51.044;3.746;2022-10-16T04:19:51;13.60;99.90
13328;DHT22;6733;51.044;3.746;2022-10-16T04:22:17;13.60;99.90
13328;DHT22;6733;51.044;3.746;2022-10-16T04:24:43;13.60;99.90
13328;DHT22;6733;51.044;3.746;2022-10-16T04:27:09;13.60;99.90
13328;DHT22;6733;51.044;3.746;2022-10-16T04:29:36;13.60;99.90
13328;DHT22;6733;51.044;3.746;2022-10-16T04:32:02;13.60;99.90
13328;DHT22;6733;51.044;3.746;2022-10-16T04:34:28;13.60;99.90
13328;DHT22;6733;51.044;3.746;2022-10-16T04:36:54;13.60;99.90
13328;DHT22;6733;51.044;3.746;2022-10-16T04:39:20;13.60;99.90
13328;DHT22;6733;51.044;3.746;2022-10-16T04:41:47;13.50;99.90
13328;DHT22;6733;51.044;3.746;2022-10-16T04:44:13;13.60;99.90
13328;DHT22;6733;51.044;3.746;2022-10-16T04:46:39;13.50;99.90
13328;DHT22;6733;51.044;3.746;2022-10-16T04:51:34;13.50;99.90
13328;DHT22;6733;51.044;3.746;2022-10-16T04:54:00;13.60;99.90
13328;DHT22;6733;51.044;3.746;2022-10-16T04:56:27;13.60;99.90
13328;DHT22;6733;51.044;3.746;2022-10-16T04:58:53;13.60;99.90
13328;DHT22;6733;51.044;3.746;2022-10-16T05:01:19;13.50;99.90
13328;DHT22;6733;51.044;3.746;2022-10-16T05:06:14;13.50;99.90
13328;DHT22;6733;51.044;3.746;2022-10-16T05:08:41;13.50;99.90
13328;DHT22;6733;51.044;3.746;2022-10-16T05:11:07;13.50;99.90
13328;DHT22;6733;51.044;3.746;2022-10-16T05:13:33;13.50;99.90
13328;DHT22;6733;51.044;3.746;2022-10-16T05:15:59;13.50;99.90
13328;DHT22;6733;51.044;3.746;2022-10-16T05:18:25;13.60;99.90
13328;DHT22;6733;51.044;3.746;2022-10-16T05:20:52;13.70;99.90
13328;DHT22;6733;51.044;3.746;2022-10-16T05:23:18;13.70;99.90
13328;DHT22;6733;51.044;3.746;2022-10-16T05:25:52;13.70;99.90
13328;DHT22;6733;51.044;3.746;2022-10-16T05:28:19;13.80;99.90
13328;DHT22;6733;51.044;3.746;2022-10-16T05:33:14;13.80;99.90
13328;DHT22;6733;51.044;3.746;2022-10-16T05:35:41;13.90;99.90
13328;DHT22;6733;51.044;3.746;2022-10-16T05:38:07;13.90;99.90
13328;DHT22;6733;51.044;3.746;2022-10-16T05:40:33;13.90;99.90
13328;DHT22;6733;51.044;3.746;2022-10-16T05:42:59;13.90;99.90
13328;DHT22;6733;51.044;3.746;2022-10-16T05:45:25;14.00;99.90
13328;DHT22;6733;51.044;3.746;2022-10-16T05:47:51;14.00;99.90
13328;DHT22;6733;51.044;3.746;2022-10-16T05:50:17;13.90;99.90
13328;DHT22;6733;51.044;3.746;2022-10-16T05:52:44;13.90;99.90
13328;DHT22;6733;51.044;3.746;2022-10-16T05:55:10;13.80;99.90
13328;DHT22;6733;51.044;3.746;2022-10-16T05:57:36;13.80;99.90
13328;DHT22;6733;51.044;3.746;2022-10-16T06:02:35;13.70;99.90
13328;DHT22;6733;51.044;3.746;2022-10-16T06:05:01;13.70;99.90
13328;DHT22;6733;51.044;3.746;2022-10-16T06:07:27;13.60;99.90
13328;DHT22;6733;51.044;3.746;2022-10-16T06:09:53;13.60;99.90
13328;DHT22;6733;51.044;3.746;2022-10-16T06:12:20;13.60;99.90
13328;DHT22;6733;51.044;3.746;2022-10-16T06:14:46;13.60;99.90
13328;DHT22;6733;51.044;3.746;2022-10-16T06:17:13;13.60;99.90
13328;DHT22;6733;51.044;3.746;2022-10-16T06:19:40;13.60;99.90
13328;DHT22;6733;51.044;3.746;2022-10-16T06:22:09;13.60;99.90
13328;DHT22;6733;51.044;3.746;2022-10-16T06:24:36;13.60;99.90
13328;DHT22;6733;51.044;3.746;2022-10-16T06:27:03;13.60;99.90
13328;DHT22;6733;51.044;3.746;2022-10-16T06:29:30;13.60;99.90
13328;DHT22;6733;51.044;3.746;2022-10-16T06:31:56;13.70;99.90
13328;DHT22;6733;51.044;3.746;2022-10-16T06:34:22;13.70;99.90
13328;DHT22;6733;51.044;3.746;2022-10-16T06:36:48;13.70;99.90
13328;DHT22;6733;51.044;3.746;2022-10-16T06:39:15;13.70;99.90
13328;DHT22;6733;51.044;3.746;2022-10-16T06:41:41;13.70;99.90
13328;DHT22;6733;51.044;3.746;2022-10-16T06:44:07;13.70;99.90
13328;DHT22;6733;51.044;3.746;2022-10-16T06:46:34;13.70;99.90
13328;DHT22;6733;51.044;3.746;2022-10-16T06:49:00;13.70;99.90
13328;DHT22;6733;51.044;3.746;2022-10-16T06:51:26;13.70;99.90
13328;DHT22;6733;51.044;3.746;2022-10-16T06:53:54;13.70;99.90
13328;DHT22;6733;51.044;3.746;2022-10-16T06:56:25;13.70;99.90
13328;DHT22;6733;51.044;3.746;2022-10-16T06:58:52;13.70;99.90
13328;DHT22;6733;51.044;3.746;2022-10-16T07:01:21;13.80;99.90
13328;DHT22;6733;51.044;3.746;2022-10-16T07:03:47;13.70;99.90
13328;DHT22;6733;51.044;3.746;2022-10-16T07:06:17;13.70;99.90
13328;DHT22;6733;51.044;3.746;2022-10-16T07:11:15;13.60;99.90
13328;DHT22;6733;51.044;3.746;2022-10-16T07:13:42;13.60;99.90
13328;DHT22;6733;51.044;3.746;2022-10-16T07:16:12;13.60;99.90
13328;DHT22;6733;51.044;3.746;2022-10-16T07:18:39;13.60;99.90
13328;DHT22;6733;51.044;3.746;2022-10-16T07:21:08;13.60;99.90
13328;DHT22;6733;51.044;3.746;2022-10-16T07:26:04;13.60;99.90
13328;DHT22;6733;51.044;3.746;2022-10-16T07:28:32;13.60;99.90
13328;DHT22;6733;51.044;3.746;2022-10-16T07:31:07;13.60;99.90
13328;DHT22;6733;51.044;3.746;2022-10-16T07:33:34;13.60;99.90
13328;DHT22;6733;51.044;3.746;2022-10-16T07:36:01;13.60;99.90
13328;DHT22;6733;51.044;3.746;2022-10-16T07:38:27;13.60;99.90
13328;DHT22;6733;51.044;3.746;2022-10-16T07:41:01;13.60;99.90
13328;DHT22;6733;51.044;3.746;2022-10-16T07:43:28;13.70;99.90
13328;DHT22;6733;51.044;3.746;2022-10-16T07:45:54;13.80;99.90
13328;DHT22;6733;51.044;3.746;2022-10-16T07:48:22;13.80;99.90
13328;DHT22;6733;51.044;3.746;2022-10-16T07:50:48;13.80;99.90
13328;DHT22;6733;51.044;3.746;2022-10-16T07:53:15;13.90;99.90
13328;DHT22;6733;51.044;3.746;2022-10-16T07:55:41;13.90;99.90
13328;DHT22;6733;51.044;3.746;2022-10-16T07:58:08;13.90;99.90
13328;DHT22;6733;51.044;3.746;2022-10-16T08:00:36;14.00;99.90
13328;DHT22;6733;51.044;3.746;2022-10-16T08:03:03;14.00;99.90
13328;DHT22;6733;51.044;3.746;2022-10-16T08:05:30;14.00;99.90
13328;DHT22;6733;51.044;3.746;2022-10-16T08:07:57;14.10;99.90
13328;DHT22;6733;51.044;3.746;2022-10-16T08:10:25;14.20;99.90
13328;DHT22;6733;51.044;3.746;2022-10-16T08:12:52;14.30;99.90
13328;DHT22;6733;51.044;3.746;2022-10-16T08:15:19;14.30;99.90
13328;DHT22;6733;51.044;3.746;2022-10-16T08:17:55;14.40;99.90
13328;DHT22;6733;51.044;3.746;2022-10-16T08:20:21;14.50;99.90
13328;DHT22;6733;51.044;3.746;2022-10-16T08:22:47;14.60;99.90
13328;DHT22;6733;51.044;3.746;2022-10-16T08:25:13;14.70;99.90
13328;DHT22;6733;51.044;3.746;2022-10-16T08:27:40;14.80;99.90
13328;DHT22;6733;51.044;3.746;2022-10-16T08:30:06;14.80;99.90
13328;DHT22;6733;51.044;3.746;2022-10-16T08:32:33;14.90;99.90
13328;DHT22;6733;51.044;3.746;2022-10-16T08:34:59;14.90;99.90
13328;DHT22;6733;51.044;3.746;2022-10-16T08:37:30;15.00;99.90
13328;DHT22;6733;51.044;3.746;2022-10-16T08:39:56;15.10;99.90
13328;DHT22;6733;51.044;3.746;2022-10-16T08:45:20;15.20;99.90
13328;DHT22;6733;51.044;3.746;2022-10-16T08:50:27;15.40;99.90
13328;DHT22;6733;51.044;3.746;2022-10-16T08:52:54;15.40;99.90
13328;DHT22;6733;51.044;3.746;2022-10-16T08:55:46;15.40;99.90
13328;DHT22;6733;51.044;3.746;2022-10-16T08:58:25;15.60;99.90
13328;DHT22;6733;51.044;3.746;2022-10-16T09:00:57;15.70;99.90
13328;DHT22;6733;51.044;3.746;2022-10-16T09:03:39;15.70;99.90
13328;DHT22;6733;51.044;3.746;2022-10-16T09:11:44;16.10;99.90
13328;DHT22;6733;51.044;3.746;2022-10-16T09:20:28;16.30;99.90
13328;DHT22;6733;51.044;3.746;2022-10-16T09:23:12;16.50;99.90
13328;DHT22;6733;51.044;3.746;2022-10-16T09:25:43;16.50;99.90
13328;DHT22;6733;51.044;3.746;2022-10-16T09:28:10;16.80;99.90
13328;DHT22;6733;51.044;3.746;2022-10-16T09:30:37;16.60;99.90
13328;DHT22;6733;51.044;3.746;2022-10-16T09:33:04;16.60;99.90
13328;DHT22;6733;51.044;3.746;2022-10-16T09:35:40;16.80;99.90
13328;DHT22;6733;51.044;3.746;2022-10-16T09:38:06;17.10;99.90
13328;DHT22;6733;51.044;3.746;2022-10-16T09:40:38;16.80;99.90
13328;DHT22;6733;51.044;3.746;2022-10-16T09:43:25;17.10;99.90
13328;DHT22;6733;51.044;3.746;2022-10-16T09:46:05;17.20;99.90
13328;DHT22;6733;51.044;3.746;2022-10-16T09:51:06;17.10;99.90
13328;DHT22;6733;51.044;3.746;2022-10-16T09:53:58;16.90;99.90
13328;DHT22;6733;51.044;3.746;2022-10-16T09:56:27;16.90;99.90
13328;DHT22;6733;51.044;3.746;2022-10-16T09:58:56;16.80;99.90
13328;DHT22;6733;51.044;3.746;2022-10-16T10:01:31;17.30;99.90
13328;DHT22;6733;51.044;3.746;2022-10-16T10:04:01;17.50;99.90
13328;DHT22;6733;51.044;3.746;2022-10-16T10:06:31;17.50;99.90
13328;DHT22;6733;51.044;3.746;2022-10-16T10:09:23;17.90;99.90
13328;DHT22;6733;51.044;3.746;2022-10-16T10:11:57;18.00;99.90
13328;DHT22;6733;51.044;3.746;2022-10-16T10:14:31;18.20;99.90
13328;DHT22;6733;51.044;3.746;2022-10-16T10:19:51;18.00;99.90
13328;DHT22;6733;51.044;3.746;2022-10-16T10:22:42;18.20;99.90
13328;DHT22;6733;51.044;3.746;2022-10-16T10:33:25;19.30;99.90
13328;DHT22;6733;51.044;3.746;2022-10-16T10:36:25;19.30;99.90
13328;DHT22;6733;51.044;3.746;2022-10-16T10:38:54;19.20;99.90
13328;DHT22;6733;51.044;3.746;2022-10-16T10:46:45;18.70;99.90
13328;DHT22;6733;51.044;3.746;2022-10-16T10:49:39;18.50;99.90
13328;DHT22;6733;51.044;3.746;2022-10-16T10:52:34;18.30;99.90
13328;DHT22;6733;51.044;3.746;2022-10-16T10:57:50;18.80;99.90
13328;DHT22;6733;51.044;3.746;2022-10-16T11:00:23;19.00;99.90
13328;DHT22;6733;51.044;3.746;2022-10-16T11:08:50;19.10;99.90
13328;DHT22;6733;51.044;3.746;2022-10-16T11:11:27;19.30;99.90
13328;DHT22;6733;51.044;3.746;2022-10-16T11:14:08;19.80;99.90
13328;DHT22;6733;51.044;3.746;2022-10-16T11:16:43;19.70;99.90
13328;DHT22;6733;51.044;3.746;2022-10-16T11:21:50;20.10;99.90
13328;DHT22;6733;51.044;3.746;2022-10-16T11:24:25;20.40;99.90
13328;DHT22;6733;51.044;3.746;2022-10-16T11:27:02;20.70;99.90
13328;DHT22;6733;51.044;3.746;2022-10-16T11:29:30;20.90;99.90
13328;DHT22;6733;51.044;3.746;2022-10-16T11:32:01;20.90;99.90
13328;DHT22;6733;51.044;3.746;2022-10-16T11:34:44;20.30;99.90
13328;DHT22;6733;51.044;3.746;2022-10-16T11:37:36;19.80;99.90
13328;DHT22;6733;51.044;3.746;2022-10-16T11:40:19;19.50;99.90
13328;DHT22;6733;51.044;3.746;2022-10-16T11:42:54;19.60;99.90
13328;DHT22;6733;51.044;3.746;2022-10-16T11:45:33;19.70;99.90
13328;DHT22;6733;51.044;3.746;2022-10-16T11:48:08;19.90;99.90
13328;DHT22;6733;51.044;3.746;2022-10-16T11:50:50;20.30;99.90
13328;DHT22;6733;51.044;3.746;2022-10-16T11:53:38;20.40;99.90
13328;DHT22;6733;51.044;3.746;2022-10-16T11:56:05;20.70;99.90
13328;DHT22;6733;51.044;3.746;2022-10-16T11:58:40;20.40;99.90
13328;DHT22;6733;51.044;3.746;2022-10-16T12:06:58;20.60;99.90
13328;DHT22;6733;51.044;3.746;2022-10-16T12:09:30;20.50;99.90
13328;DHT22;6733;51.044;3.746;2022-10-16T12:11:57;20.40;99.90
13328;DHT22;6733;51.044;3.746;2022-10-16T12:16:58;20.60;99.90
13328;DHT22;6733;51.044;3.746;2022-10-16T12:19:29;20.30;99.90
13328;DHT22;6733;51.044;3.746;2022-10-16T12:22:01;19.70;99.90
13328;DHT22;6733;51.044;3.746;2022-10-16T12:24:52;19.90;99.90
13328;DHT22;6733;51.044;3.746;2022-10-16T12:27:32;20.00;99.90
13328;DHT22;6733;51.044;3.746;2022-10-16T12:30:03;20.40;99.90
13328;DHT22;6733;51.044;3.746;2022-10-16T12:41:28;20.10;99.90
13328;DHT22;6733;51.044;3.746;2022-10-16T12:43:54;20.50;99.90
13328;DHT22;6733;51.044;3.746;2022-10-16T12:46:44;20.60;99.90
13328;DHT22;6733;51.044;3.746;2022-10-16T16:27:17;17.60;99.90
